EFTUEFPO

Guest
Details From EFTU - Turku
To EFPO - Pori
Flight Number -
Tags decoded
Created
Modified
Stats Distance 75 nm / 139 km
Max Altitude 0 ft / 0 m
Waypoints 3
Social Downloads 0
Likes 0
Share VATSIM

Download

Looking for another format? Having issues loading an existing format? Contact us
Advertisement - Login to hide

Notes

Requested: EFTU INKIS EFPO

Route

EFTU INKIS EFPO

ID Type Via Altitude (ft/m) Position (lat/lon) Dist (leg/tot) Name
O EFTU APT - 0 / 0 60.51412 / 22.26281 - / 0 nm Turku
INKIS FIX - 0 / 0 60.93750 / 22.86861 31 / 31 nm
O EFPO APT - 0 / 0 61.46117 / 21.79925 44 / 75 nm Pori

Altitude Profile

Advertisement - Login to hide

EFTU

Details ICAO EFTU (TKU)
Name Turku
Region Finland
Timezone Europe/Helsinki (UTC+3.0)
Stats Elevation 161 ft / 49 m (AMSL)
Location 60.514100° 22.262800°
Runways 1
Magnetic Variation 8.099° E

METAR

EFTU 230020Z AUTO 22007KT 9999 FEW021 10/06 Q0995

Decode

TAF

TAF EFTU 222335Z 2300/2400 22007KT CAVOK TEMPO 2300/2306 FEW030CB PROB30 2306/2310 FEW030CB

Decode

Departure Runways

ID Width Length Bearing (true/mag) Surface Threshold Overrun Markings Lighting
08 197 ft / 60 m 8,210 ft / 2,502 m 84.82° / 76.72° ASPHALT 0 ft / 0 m 167 ft / 51 m PREC-APP EDGE THRESHOLD MALS
26 197 ft / 60 m 8,210 ft / 2,502 m 264.86° / 256.76° ASPHALT 0 ft / 0 m 49 ft / 15 m PREC-APP EDGE THRESHOLD CALVERT

EFPO

Details ICAO EFPO (POR)
Name Pori
Region Finland
Timezone Europe/Helsinki (UTC+3.0)
Stats Elevation 44 ft / 13 m (AMSL)
Location 61.461200° 21.799300°
Runways 2
Magnetic Variation 8.163° E

METAR

EFPO 230020Z AUTO 21009KT 180V270 9999 SCT027/// BKN062/// 12/06 Q0992

Decode

TAF

Not found

Destination Runways

ID Width Length Bearing (true/mag) Surface Threshold Overrun Markings Lighting
12 197 ft / 60 m 7,692 ft / 2,345 m 125.81° / 117.65° ASPHALT 312 ft / 95 m 0 ft / 0 m PREC-APP EDGE THRESHOLD
17 98 ft / 30 m 2,623 ft / 799 m 173.89° / 165.73° ASPHALT 400 ft / 122 m 0 ft / 0 m PREC-APP
30 197 ft / 60 m 7,692 ft / 2,345 m 305.84° / 297.68° ASPHALT 1,132 ft / 345 m 0 ft / 0 m PREC-APP EDGE THRESHOLD ALSF-I
35 98 ft / 30 m 2,623 ft / 799 m 353.90° / 345.73° ASPHALT 400 ft / 122 m 0 ft / 0 m PREC-APP

Approach Navaids

Runway Type Ident Frequency Range Bearing (true/mag) Slope Elevation
30 LOC-ILS PO 109.10 MHz 18 nm / 33 km 305.81° / 297.64 ° - 44 ft / 13 m (AMSL)
30 GS PO 109.10 MHz 10 nm / 19 km 306.65° / 298.49 ° 3.00° 44 ft / 13 m (AMSL)
30 OM OM - - 305.83° / 297.66 ° - 44 ft / 13 m (AMSL)
30 MM MM - - 305.83° / 297.66 ° - 44 ft / 13 m (AMSL)

Popular Alternatives